Time;durP1;ratioP1;P1;durP2;ratioP2;P2;SDS_P1;SDS_P2;PMS_P1;PMS_P2;Temp;Humidity;BMP_temperature;BMP_pressure;BME280_temperature;BME280_humidity;BME280_pressure;Samples;Min_cycle;Max_cycle;Signal;HPM_P1;HPM_P2
2023/01/09 00:01:52;;;;;;;;;;;;;;;5.52;83.10;99609.25;4186752;28;19920;-64
2023/01/09 00:03:54;;;;;;;;;;;;;;;5.49;83.05;99602.38;4186219;28;20019;-65
2023/01/09 00:05:56;;;;;;;;;;;;;;;5.44;83.34;99598.53;4186476;28;20462;-64
2023/01/09 00:07:58;;;;;;;;;;;;;;;5.43;83.39;99594.19;4186507;28;20027;-63
2023/01/09 00:10:00;;;;;;;;;;;;;;;5.41;83.58;99599.72;4187003;28;20469;-65
2023/01/09 00:12:02;;;;;;;;;;;;;;;5.41;83.39;99594.38;4182622;28;20368;-65
2023/01/09 00:14:04;;;;;;;;;;;;;;;5.37;83.54;99591.19;4170865;28;20028;-66
2023/01/09 00:16:07;;;;;;;;;;;;;;;5.37;83.35;99590.34;4171075;28;20012;-64
2023/01/09 00:18:11;;;;;;;;;;;;;;;5.34;83.57;99588.84;4169430;28;20198;-64
2023/01/09 00:20:13;;;;;;;;;;;;;;;5.31;83.42;99586.50;4170787;28;20016;-61
2023/01/09 00:22:15;;;;;;;;;;;;;;;5.31;83.55;99593.72;4170692;28;19986;-64
2023/01/09 00:24:17;;;;;;;;;;;;;;;5.29;83.45;99587.69;4171159;28;20004;-64
2023/01/09 00:26:19;;;;;;;;;;;;;;;5.26;83.60;99586.19;4170435;28;20023;-64
2023/01/09 00:28:21;;;;;;;;;;;;;;;5.24;83.77;99583.69;4170811;28;20015;-64
2023/01/09 00:30:23;;;;;;;;;;;;;;;5.23;83.68;99578.50;4186700;28;20019;-64
2023/01/09 00:32:25;;;;;;;;;;;;;;;5.23;83.86;99583.84;4170392;28;20019;-66
2023/01/09 00:34:29;;;;;;;;;;;;;;;5.20;83.67;99576.16;4170755;28;20400;-64
2023/01/09 00:36:31;;;;;;;;;;;;;;;5.21;83.66;99575.16;4170834;28;20358;-64
2023/01/09 00:38:33;;;;;;;;;;;;;;;5.21;83.82;99567.13;4154402;28;20013;-64
2023/01/09 00:40:35;;;;;;;;;;;;;;;5.20;83.94;99566.31;4155341;28;20048;-64
2023/01/09 00:42:37;;;;;;;;;;;;;;;5.19;83.78;99558.44;4154199;28;20365;-64
2023/01/09 00:44:41;;;;;;;;;;;;;;;5.17;83.74;99555.94;4154870;28;20016;-64
2023/01/09 00:46:45;;;;;;;;;;;;;;;5.19;84.15;99550.41;4156658;28;20017;-65
2023/01/09 00:48:47;;;;;;;;;;;;;;;5.19;83.91;99553.09;4185917;28;20015;-65
2023/01/09 00:50:50;;;;;;;;;;;;;;;5.18;84.27;99551.41;4187384;28;20015;-64
2023/01/09 00:52:53;;;;;;;;;;;;;;;5.17;84.13;99552.41;4186484;28;20019;-64
2023/01/09 00:54:55;;;;;;;;;;;;;;;5.17;84.21;99553.25;4186757;28;20461;-63
2023/01/09 00:56:57;;;;;;;;;;;;;;;5.16;84.32;99532.84;4185447;28;20023;-64
2023/01/09 00:58:59;;;;;;;;;;;;;;;5.16;84.21;99538.19;4187273;28;20027;-61
2023/01/09 01:01:01;;;;;;;;;;;;;;;5.18;84.03;99532.69;4186549;28;20050;-62
2023/01/09 01:03:03;;;;;;;;;;;;;;;5.17;84.12;99537.22;4185002;28;19920;-64
2023/01/09 01:07:37;;;;;;;;;;;;;;;5.17;83.90;99529.19;4186342;28;20028;-64
2023/01/09 01:09:39;;;;;;;;;;;;;;;5.16;83.86;99529.34;4186890;28;20621;-64
2023/01/09 01:11:41;;;;;;;;;;;;;;;5.14;83.84;99528.66;4185361;28;20044;-63
2023/01/09 01:13:43;;;;;;;;;;;;;;;5.14;83.85;99526.00;4186277;28;20015;-64
2023/01/09 01:15:45;;;;;;;;;;;;;;;5.12;84.20;99523.47;4186762;28;20024;-63
2023/01/09 01:17:47;;;;;;;;;;;;;;;5.12;84.11;99511.94;4185819;28;20007;-65
2023/01/09 01:19:49;;;;;;;;;;;;;;;5.14;84.21;99520.63;4187125;28;20011;-65
2023/01/09 01:21:51;;;;;;;;;;;;;;;5.12;84.23;99522.66;4185725;28;20015;-65
2023/01/09 01:23:55;;;;;;;;;;;;;;;5.11;84.12;99519.16;4186886;28;19925;-66
2023/01/09 01:25:57;;;;;;;;;;;;;;;5.12;84.35;99514.63;4186431;28;20026;-64
2023/01/09 01:27:59;;;;;;;;;;;;;;;5.13;84.43;99508.28;4185728;28;19995;-64
2023/01/09 01:30:00;;;;;;;;;;;;;;;5.14;84.33;99504.56;4186345;28;20023;-65
2023/01/09 01:32:03;;;;;;;;;;;;;;;5.14;84.43;99508.09;4186337;28;20359;-64
2023/01/09 01:34:05;;;;;;;;;;;;;;;5.16;84.29;99507.94;4185892;28;20019;-64
2023/01/09 01:36:07;;;;;;;;;;;;;;;5.16;84.29;99510.63;4186442;28;20008;-66
2023/01/09 01:38:09;;;;;;;;;;;;;;;5.15;84.28;99509.75;4185724;28;20035;-64
2023/01/09 01:40:13;;;;;;;;;;;;;;;5.15;84.14;99511.59;4186987;28;20028;-64
2023/01/09 01:42:15;;;;;;;;;;;;;;;5.15;84.20;99508.94;4185734;28;20019;-64
2023/01/09 01:44:36;;;;;;;;;;;;;;;5.13;83.94;99502.94;4186554;28;20035;-63
2023/01/09 01:46:37;;;;;;;;;;;;;;;5.13;84.30;99508.28;4183159;28;19999;-65
2023/01/09 01:48:39;;;;;;;;;;;;;;;5.16;83.84;99502.59;4186091;28;20003;-64
2023/01/09 01:50:43;;;;;;;;;;;;;;;5.14;84.19;99501.91;4186745;28;20366;-64
2023/01/09 01:52:45;;;;;;;;;;;;;;;5.14;83.84;99497.41;4186053;28;20047;-64
2023/01/09 01:54:47;;;;;;;;;;;;;;;5.15;84.03;99484.84;4186293;28;20027;-64
2023/01/09 01:56:52;;;;;;;;;;;;;;;5.10;83.62;99480.00;4184603;28;20039;-64
2023/01/09 01:58:55;;;;;;;;;;;;;;;5.09;83.79;99477.50;4186510;28;20373;-64
2023/01/09 02:00:56;;;;;;;;;;;;;;;5.07;83.86;99472.31;4186781;28;20007;-64
2023/01/09 02:02:59;;;;;;;;;;;;;;;5.07;83.87;99484.88;4185364;28;20019;-63
2023/01/09 02:05:01;;;;;;;;;;;;;;;5.05;83.94;99472.50;4185265;28;19924;-65
2023/01/09 02:07:04;;;;;;;;;;;;;;;5.05;83.92;99469.81;4184116;28;20011;-64
2023/01/09 02:09:06;;;;;;;;;;;;;;;5.04;84.02;99473.50;4185883;28;20019;-65
2023/01/09 02:11:08;;;;;;;;;;;;;;;5.06;84.21;99473.31;4185592;28;20026;-64
2023/01/09 02:13:12;;;;;;;;;;;;;;;5.05;83.97;99477.03;4184532;28;20011;-64
2023/01/09 02:15:14;;;;;;;;;;;;;;;5.03;83.71;99462.97;4185050;28;20023;-65
2023/01/09 02:17:17;;;;;;;;;;;;;;;5.03;83.75;99477.19;4185099;28;20010;-65
2023/01/09 02:19:24;;;;;;;;;;;;;;;5.02;83.64;99474.69;4185134;28;20019;-64
2023/01/09 02:21:30;;;;;;;;;;;;;;;5.00;83.69;99464.16;4186156;28;20015;-64
2023/01/09 02:23:56;;;;;;;;;;;;;;;5.00;83.92;99472.19;4182586;28;19996;-64
2023/01/09 02:26:05;;;;;;;;;;;;;;;5.00;84.03;99474.00;4185496;28;19927;-64
2023/01/09 02:28:15;;;;;;;;;;;;;;;5.00;83.99;99469.50;4185035;28;20020;-64
2023/01/09 02:30:21;;;;;;;;;;;;;;;4.99;83.94;99470.50;4186089;28;20095;-64
2023/01/09 02:32:27;;;;;;;;;;;;;;;5.00;83.90;99474.00;4185092;28;20034;-63
2023/01/09 02:34:31;;;;;;;;;;;;;;;5.00;83.60;99471.31;4185927;28;20450;-64
2023/01/09 02:36:34;;;;;;;;;;;;;;;5.00;83.71;99466.84;4185821;28;20015;-64
2023/01/09 02:38:40;;;;;;;;;;;;;;;4.98;83.95;99473.34;4184651;28;20606;-65
2023/01/09 02:40:44;;;;;;;;;;;;;;;4.97;83.88;99469.84;4185136;28;20017;-65
2023/01/09 02:42:46;;;;;;;;;;;;;;;4.97;83.76;99479.69;4185751;28;19984;-65
2023/01/09 02:44:48;;;;;;;;;;;;;;;4.96;83.93;99470.84;4186057;28;20011;-64
2023/01/09 02:47:02;;;;;;;;;;;;;;;4.97;83.90;99477.03;4185870;28;20015;-64
2023/01/09 02:49:04;;;;;;;;;;;;;;;4.95;83.99;99471.84;4186050;28;20015;-64
2023/01/09 02:51:08;;;;;;;;;;;;;;;4.92;84.14;99474.88;4186219;28;20007;-63
2023/01/09 02:53:28;;;;;;;;;;;;;;;4.92;84.32;99477.56;4185221;28;20039;-64
2023/01/09 02:55:34;;;;;;;;;;;;;;;4.92;83.95;99469.53;4185581;28;20660;-63
2023/01/09 02:57:42;;;;;;;;;;;;;;;4.92;83.94;99471.34;4184429;28;20023;-63
2023/01/09 02:59:48;;;;;;;;;;;;;;;4.91;84.09;99464.34;4185461;28;20031;-64
2023/01/09 03:01:54;;;;;;;;;;;;;;;4.90;84.29;99465.34;4184299;28;20031;-64
2023/01/09 03:03:59;;;;;;;;;;;;;;;4.90;84.12;99447.44;4185835;28;20015;-64
2023/01/09 03:06:03;;;;;;;;;;;;;;;4.92;84.33;99440.09;4186183;28;20015;-63
2023/01/09 03:08:05;;;;;;;;;;;;;;;4.92;84.28;99453.47;4184064;28;19921;-64
2023/01/09 03:10:09;;;;;;;;;;;;;;;4.92;84.32;99458.84;4185579;28;20011;-64
2023/01/09 03:12:11;;;;;;;;;;;;;;;4.94;83.93;99450.63;4199946;28;20014;-64
2023/01/09 03:14:14;;;;;;;;;;;;;;;4.96;84.03;99448.63;4185402;28;20031;-66
2023/01/09 03:16:17;;;;;;;;;;;;;;;4.97;84.17;99447.59;4186123;28;20012;-63
2023/01/09 03:18:19;;;;;;;;;;;;;;;4.97;84.17;99445.78;4184578;28;20352;-65
2023/01/09 03:20:23;;;;;;;;;;;;;;;4.96;84.22;99438.75;4185248;28;20054;-64
2023/01/09 03:22:25;;;;;;;;;;;;;;;4.96;83.96;99437.91;4183988;28;20011;-66
2023/01/09 03:24:27;;;;;;;;;;;;;;;4.95;84.23;99431.72;4183772;28;20039;-65
2023/01/09 03:26:30;;;;;;;;;;;;;;;4.94;84.12;99427.38;4184942;28;20023;-64
2023/01/09 03:28:31;;;;;;;;;;;;;;;4.94;84.23;99432.72;4183262;28;20016;-65
2023/01/09 03:30:35;;;;;;;;;;;;;;;4.93;84.46;99431.06;4184127;28;20019;-64
2023/01/09 03:32:37;;;;;;;;;;;;;;;4.94;84.57;99419.34;4184327;28;20011;-63
2023/01/09 03:34:39;;;;;;;;;;;;;;;4.95;84.65;99429.03;4184441;28;20016;-63
2023/01/09 03:36:42;;;;;;;;;;;;;;;4.96;84.95;99422.69;4184232;28;20015;-64
2023/01/09 03:38:44;;;;;;;;;;;;;;;4.97;84.97;99412.81;4200764;28;20441;-64
2023/01/09 03:40:46;;;;;;;;;;;;;;;4.98;84.93;99411.81;4185963;28;20019;-65
2023/01/09 03:42:48;;;;;;;;;;;;;;;5.00;84.97;99407.09;4176854;28;20021;-64
2023/01/09 03:44:50;;;;;;;;;;;;;;;5.01;85.11;99404.25;4171080;28;20030;-64
2023/01/09 03:46:52;;;;;;;;;;;;;;;5.04;85.01;99400.41;4173679;28;20015;-64
2023/01/09 03:48:54;;;;;;;;;;;;;;;5.04;85.13;99403.91;4187118;28;20439;-63
2023/01/09 03:50:56;;;;;;;;;;;;;;;5.04;85.06;99400.41;4187098;28;20384;-63
2023/01/09 03:53:00;;;;;;;;;;;;;;;5.07;85.00;99399.25;4187679;28;20018;-65
2023/01/09 03:55:02;;;;;;;;;;;;;;;5.07;84.99;99394.72;4186714;28;20019;-65
2023/01/09 03:57:04;;;;;;;;;;;;;;;5.09;84.53;99394.53;4187235;28;20011;-63
2023/01/09 03:59:06;;;;;;;;;;;;;;;5.10;84.71;99401.56;4186891;28;20011;-64
2023/01/09 04:01:11;;;;;;;;;;;;;;;5.10;84.90;99393.53;4186586;28;20601;-64
2023/01/09 04:03:13;;;;;;;;;;;;;;;5.10;84.71;99391.69;4185884;28;20027;-65
2023/01/09 04:05:15;;;;;;;;;;;;;;;5.12;85.06;99394.19;4187027;28;20019;-64
2023/01/09 04:07:17;;;;;;;;;;;;;;;5.12;85.06;99396.88;4186934;28;20012;-64
2023/01/09 04:09:20;;;;;;;;;;;;;;;5.13;85.01;99396.69;4188757;28;20802;-65
2023/01/09 04:11:22;;;;;;;;;;;;;;;5.15;85.10;99397.34;4188274;28;20588;-63
2023/01/09 04:13:24;;;;;;;;;;;;;;;5.14;84.84;99387.66;4185637;28;20016;-64
2023/01/09 04:15:26;;;;;;;;;;;;;;;5.16;84.85;99382.13;4187248;28;20054;-64
2023/01/09 04:17:28;;;;;;;;;;;;;;;5.18;84.89;99374.75;4186629;28;20039;-64
2023/01/09 04:19:30;;;;;;;;;;;;;;;5.12;85.21;99370.09;4187940;28;20007;-64
2023/01/09 04:21:32;;;;;;;;;;;;;;;5.18;85.02;99382.78;4188555;28;20041;-64
2023/01/09 04:23:34;;;;;;;;;;;;;;;5.20;84.82;99383.44;4186486;28;21329;-64
2023/01/09 04:25:37;;;;;;;;;;;;;;;5.21;84.73;99383.25;4186557;28;20039;-64
2023/01/09 04:27:39;;;;;;;;;;;;;;;5.23;84.57;99385.75;4187606;28;20466;-65
2023/01/09 04:29:41;;;;;;;;;;;;;;;5.24;84.33;99384.75;4187833;28;20031;-64
2023/01/09 04:31:43;;;;;;;;;;;;;;;5.26;84.27;99382.72;4187549;28;20885;-63
2023/01/09 04:33:45;;;;;;;;;;;;;;;5.27;84.33;99378.22;4187116;28;20019;-63
2023/01/09 04:35:47;;;;;;;;;;;;;;;5.31;84.46;99376.84;4187225;28;19999;-65
2023/01/09 04:37:49;;;;;;;;;;;;;;;5.31;84.40;99383.03;4187375;28;20011;-64
2023/01/09 04:39:54;;;;;;;;;;;;;;;5.32;84.10;99378.53;4188607;28;20007;-63
2023/01/09 04:41:58;;;;;;;;;;;;;;;5.32;83.89;99370.50;4186733;28;20035;-65
2023/01/09 04:44:00;;;;;;;;;;;;;;;5.32;84.25;99368.66;4187581;28;20019;-64
2023/01/09 04:46:02;;;;;;;;;;;;;;;5.33;84.22;99367.66;4187555;28;20023;-65
2023/01/09 04:48:04;;;;;;;;;;;;;;;5.34;84.27;99368.47;4186040;28;20004;-65
2023/01/09 04:50:06;;;;;;;;;;;;;;;5.35;84.08;99364.78;4187029;28;19928;-63
2023/01/09 04:52:08;;;;;;;;;;;;;;;5.34;84.27;99366.63;4174745;28;20029;-63
2023/01/09 04:54:10;;;;;;;;;;;;;;;5.35;84.21;99368.28;4155861;28;20027;-64
2023/01/09 04:56:12;;;;;;;;;;;;;;;5.35;84.24;99365.63;4155548;28;19992;-64
2023/01/09 04:58:15;;;;;;;;;;;;;;;5.34;84.23;99366.63;4181276;28;20022;-63
2023/01/09 05:00:17;;;;;;;;;;;;;;;5.34;84.13;99366.63;4186924;28;20066;-63
2023/01/09 05:02:19;;;;;;;;;;;;;;;5.36;84.14;99361.09;4186131;28;19995;-64
2023/01/09 05:04:21;;;;;;;;;;;;;;;5.34;84.74;99352.41;4187002;28;20010;-64
2023/01/09 05:06:23;;;;;;;;;;;;;;;5.35;84.74;99362.94;4187157;28;20057;-64
2023/01/09 05:08:25;;;;;;;;;;;;;;;5.37;84.71;99352.88;4186435;28;20035;-64
2023/01/09 05:10:27;;;;;;;;;;;;;;;5.37;84.62;99347.53;4186474;28;19955;-64
2023/01/09 05:12:29;;;;;;;;;;;;;;;5.38;85.15;99353.72;4186809;28;20020;-63
2023/01/09 05:14:32;;;;;;;;;;;;;;;5.40;84.85;99351.69;4185932;28;20007;-64
2023/01/09 05:16:34;;;;;;;;;;;;;;;5.41;85.20;99351.53;4186124;28;20396;-63
2023/01/09 05:18:36;;;;;;;;;;;;;;;5.42;85.25;99344.31;4186470;28;20011;-61
2023/01/09 05:20:38;;;;;;;;;;;;;;;5.43;85.77;99350.53;4186693;28;20019;-63
2023/01/09 05:22:40;;;;;;;;;;;;;;;5.44;85.87;99344.13;4201662;28;20015;-64
2023/01/09 05:24:42;;;;;;;;;;;;;;;5.42;86.36;99352.34;4186005;28;20043;-63
2023/01/09 05:26:44;;;;;;;;;;;;;;;5.43;86.74;99353.19;4185595;28;20022;-64
2023/01/09 05:28:46;;;;;;;;;;;;;;;5.43;86.75;99353.19;4187209;28;20014;-63
2023/01/09 05:30:49;;;;;;;;;;;;;;;5.44;87.05;99349.50;4186344;28;19928;-63
2023/01/09 05:32:51;;;;;;;;;;;;;;;5.43;87.13;99342.50;4185144;28;20477;-63
2023/01/09 05:34:53;;;;;;;;;;;;;;;5.43;87.22;99347.84;4185000;28;20012;-63
2023/01/09 05:36:55;;;;;;;;;;;;;;;5.44;87.33;99350.34;4182889;28;20016;-67
2023/01/09 05:38:57;;;;;;;;;;;;;;;5.45;87.55;99354.66;4185460;28;20036;-64
2023/01/09 05:40:59;;;;;;;;;;;;;;;5.47;87.22;99349.13;4187358;28;20434;-64
2023/01/09 05:43:01;;;;;;;;;;;;;;;5.45;87.46;99349.31;4184067;28;20023;-64
2023/01/09 05:45:04;;;;;;;;;;;;;;;5.44;87.90;99349.50;4185908;28;20012;-65
2023/01/09 05:47:07;;;;;;;;;;;;;;;5.45;88.08;99343.13;4185621;28;20028;-64
2023/01/09 05:49:09;;;;;;;;;;;;;;;5.43;88.14;99340.63;4184458;28;20442;-63
2023/01/09 05:51:11;;;;;;;;;;;;;;;5.45;88.25;99341.28;4185101;28;19978;-63
2023/01/09 05:53:13;;;;;;;;;;;;;;;5.46;88.26;99336.78;4182137;28;20027;-65
2023/01/09 05:55:15;;;;;;;;;;;;;;;5.47;87.80;99333.06;4186391;28;20462;-63
2023/01/09 05:57:17;;;;;;;;;;;;;;;5.46;88.00;99324.22;4185731;28;20377;-64
2023/01/09 05:59:19;;;;;;;;;;;;;;;5.46;88.28;99326.88;4185568;28;20024;-63
2023/01/09 06:01:21;;;;;;;;;;;;;;;5.46;88.17;99334.09;4185056;28;20649;-61
2023/01/09 06:03:24;;;;;;;;;;;;;;;5.44;87.89;99328.06;4182429;28;21251;-63
2023/01/09 06:05:26;;;;;;;;;;;;;;;5.44;87.91;99328.91;4184788;28;20479;-65
2023/01/09 06:07:28;;;;;;;;;;;;;;;5.44;88.14;99331.59;4185112;28;20004;-65
2023/01/09 06:09:30;;;;;;;;;;;;;;;5.45;87.99;99330.56;4183757;28;20016;-64
2023/01/09 06:11:34;;;;;;;;;;;;;;;5.45;88.46;99325.22;4185141;28;19928;-64
2023/01/09 06:13:36;;;;;;;;;;;;;;;5.44;88.53;99326.25;4199126;28;20553;-65
2023/01/09 06:15:38;;;;;;;;;;;;;;;5.46;88.60;99323.38;4185353;28;20019;-64
2023/01/09 06:17:40;;;;;;;;;;;;;;;5.45;88.73;99319.03;4183953;28;20007;-64
2023/01/09 06:19:43;;;;;;;;;;;;;;;5.45;88.87;99324.38;4183462;28;20018;-64
2023/01/09 06:21:45;;;;;;;;;;;;;;;5.45;88.62;99314.50;4185166;28;20462;-64
2023/01/09 06:23:47;;;;;;;;;;;;;;;5.47;88.95;99308.97;4185003;28;20007;-65
2023/01/09 06:25:49;;;;;;;;;;;;;;;5.46;88.88;99315.34;4185695;28;20011;-64
2023/01/09 06:27:51;;;;;;;;;;;;;;;5.45;89.32;99317.19;4184368;28;20357;-64
2023/01/09 06:29:53;;;;;;;;;;;;;;;5.45;89.48;99317.19;4184042;28;20372;-64
2023/01/09 06:31:55;;;;;;;;;;;;;;;5.45;89.58;99321.72;4182532;28;20408;-65
2023/01/09 06:33:57;;;;;;;;;;;;;;;5.44;89.73;99315.53;4184313;28;20016;-66
2023/01/09 06:36:00;;;;;;;;;;;;;;;5.44;89.67;99315.53;4185805;28;20023;-66
2023/01/09 06:38:02;;;;;;;;;;;;;;;5.44;89.93;99310.19;4184351;28;20811;-65
2023/01/09 06:40:05;;;;;;;;;;;;;;;5.44;90.46;99306.66;4183216;28;20007;-65
2023/01/09 06:42:07;;;;;;;;;;;;;;;5.44;90.43;99307.50;4176771;28;20007;-67
2023/01/09 06:44:09;;;;;;;;;;;;;;;5.45;90.49;99301.13;4170120;28;20019;-64
2023/01/09 06:46:11;;;;;;;;;;;;;;;5.45;90.43;99294.94;4170099;28;20434;-65
2023/01/09 06:48:13;;;;;;;;;;;;;;;5.45;90.51;99300.28;4181058;28;20019;-65
2023/01/09 06:50:15;;;;;;;;;;;;;;;5.44;90.56;99302.16;4185820;28;20047;-63
2023/01/09 06:52:18;;;;;;;;;;;;;;;5.45;90.83;99300.28;4185527;28;19947;-64
2023/01/09 06:54:20;;;;;;;;;;;;;;;5.46;90.41;99294.75;4185167;28;19999;-64
2023/01/09 06:56:22;;;;;;;;;;;;;;;5.48;90.75;99291.91;4184892;28;20685;-65
2023/01/09 06:58:24;;;;;;;;;;;;;;;5.47;90.78;99304.47;4186624;28;20015;-62
2023/01/09 07:00:26;;;;;;;;;;;;;;;5.49;90.62;99288.22;4184076;28;20019;-64
2023/01/09 07:02:28;;;;;;;;;;;;;;;5.47;90.83;99285.72;4184544;28;20037;-64
2023/01/09 07:04:30;;;;;;;;;;;;;;;5.48;90.69;99289.22;4184172;28;20019;-63
2023/01/09 07:06:32;;;;;;;;;;;;;;;5.48;90.87;99282.00;4183058;28;20011;-64
2023/01/09 07:08:36;;;;;;;;;;;;;;;5.48;91.35;99276.66;4182208;28;20437;-63
2023/01/09 07:10:38;;;;;;;;;;;;;;;5.49;91.22;99281.00;4185353;28;20010;-64
2023/01/09 07:12:40;;;;;;;;;;;;;;;5.49;91.43;99282.84;4175741;28;20446;-64
2023/01/09 07:14:42;;;;;;;;;;;;;;;5.50;91.13;99282.69;4167664;28;20020;-62
2023/01/09 07:16:43;;;;;;;;;;;;;;;5.49;91.44;99285.53;4171722;28;20043;-64
2023/01/09 07:18:45;;;;;;;;;;;;;;;5.50;91.34;99282.69;4188162;28;20023;-63
2023/01/09 07:20:48;;;;;;;;;;;;;;;5.50;91.64;99285.34;4187678;28;20019;-64
2023/01/09 07:22:50;;;;;;;;;;;;;;;5.51;91.43;99281.66;4188045;28;20015;-63
2023/01/09 07:24:53;;;;;;;;;;;;;;;5.51;91.65;99280.81;4187048;28;20050;-61
2023/01/09 07:26:55;;;;;;;;;;;;;;;5.52;91.59;99285.19;4202230;28;20563;-63
2023/01/09 07:28:57;;;;;;;;;;;;;;;5.51;91.65;99289.69;4188815;28;20007;-62
2023/01/09 07:31:01;;;;;;;;;;;;;;;5.53;91.91;99293.03;4186664;28;20015;-63
2023/01/09 07:33:03;;;;;;;;;;;;;;;5.53;91.91;99287.69;4188361;28;19935;-62
2023/01/09 07:35:05;;;;;;;;;;;;;;;5.54;91.83;99291.19;4188342;28;20018;-63
2023/01/09 07:37:07;;;;;;;;;;;;;;;5.54;91.98;99292.00;4188202;28;19991;-63
2023/01/09 07:39:09;;;;;;;;;;;;;;;5.56;91.85;99294.50;4188792;28;20036;-63
2023/01/09 07:41:12;;;;;;;;;;;;;;;5.56;91.73;99294.50;4188980;28;20031;-62
2023/01/09 07:43:14;;;;;;;;;;;;;;;5.56;92.04;99289.16;4173917;28;20023;-62
2023/01/09 07:45:16;;;;;;;;;;;;;;;5.55;92.34;99288.31;4172160;28;20665;-61
2023/01/09 07:47:18;;;;;;;;;;;;;;;5.56;92.31;99286.47;4176965;28;20811;-62
2023/01/09 07:49:20;;;;;;;;;;;;;;;5.56;92.15;99287.31;4187723;28;20458;-63
2023/01/09 07:51:22;;;;;;;;;;;;;;;5.57;92.03;99302.34;4190185;28;20019;-60
2023/01/09 07:53:24;;;;;;;;;;;;;;;5.58;92.43;99303.22;4187348;28;19925;-62
2023/01/09 07:55:26;;;;;;;;;;;;;;;5.60;92.26;99309.22;4186120;28;20015;-62
2023/01/09 07:57:29;;;;;;;;;;;;;;;5.62;92.38;99304.50;4186863;28;20016;-63
2023/01/09 07:59:31;;;;;;;;;;;;;;;5.63;92.34;99311.53;4186779;28;20011;-63
2023/01/09 08:01:33;;;;;;;;;;;;;;;5.62;92.63;99307.19;4187240;28;20015;-63
2023/01/09 08:03:35;;;;;;;;;;;;;;;5.63;92.71;99311.53;4185898;28;20294;-63
2023/01/09 08:05:37;;;;;;;;;;;;;;;5.64;92.71;99309.69;4187179;28;20485;-63
2023/01/09 08:07:39;;;;;;;;;;;;;;;5.64;92.64;99313.19;4185513;28;20007;-62
2023/01/09 08:09:41;;;;;;;;;;;;;;;5.65;92.73;99324.75;4186275;28;20019;-61
2023/01/09 08:11:43;;;;;;;;;;;;;;;5.64;92.81;99320.38;4185988;28;20016;-62
2023/01/09 08:13:46;;;;;;;;;;;;;;;5.64;92.72;99313.19;4186927;28;19925;-62
2023/01/09 08:15:48;;;;;;;;;;;;;;;5.65;92.62;99322.88;4188693;28;20016;-61
2023/01/09 08:17:50;;;;;;;;;;;;;;;5.65;92.72;99322.06;4185974;28;20023;-62
2023/01/09 08:19:52;;;;;;;;;;;;;;;5.65;92.91;99322.88;4189157;28;20048;-63
2023/01/09 08:21:54;;;;;;;;;;;;;;;5.65;93.12;99320.22;4187566;28;20342;-63
2023/01/09 08:23:56;;;;;;;;;;;;;;;5.66;93.05;99319.22;4187322;28;19959;-63
2023/01/09 08:25:58;;;;;;;;;;;;;;;5.66;93.29;99316.53;4188574;28;20058;-62
2023/01/09 08:28:00;;;;;;;;;;;;;;;5.69;93.38;99318.00;4187052;28;20015;-62
2023/01/09 08:30:03;;;;;;;;;;;;;;;5.71;93.48;99324.03;4186831;28;19975;-62
2023/01/09 08:32:06;;;;;;;;;;;;;;;5.71;93.50;99318.66;4188870;28;20015;-62
2023/01/09 08:34:08;;;;;;;;;;;;;;;5.72;93.15;99310.44;4186904;28;19975;-63
2023/01/09 08:36:10;;;;;;;;;;;;;;;5.73;93.43;99327.34;4187155;28;20015;-62
2023/01/09 08:38:12;;;;;;;;;;;;;;;5.74;93.66;99329.84;4186144;28;20441;-62
2023/01/09 08:40:14;;;;;;;;;;;;;;;5.73;93.43;99317.47;4187898;28;20015;-63
2023/01/09 08:47:06;;;;;;;;;;;;;;;5.77;93.30;99329.47;4157048;28;20023;-62
2023/01/09 08:49:08;;;;;;;;;;;;;;;5.77;93.45;99331.34;4187320;28;20014;-60
2023/01/09 08:51:10;;;;;;;;;;;;;;;5.78;93.41;99336.53;4186606;28;20019;-62
2023/01/09 08:53:12;;;;;;;;;;;;;;;5.77;93.23;99340.19;4186655;28;20012;-63
2023/01/09 08:55:14;;;;;;;;;;;;;;;5.77;93.50;99348.25;4187430;28;19920;-64
2023/01/09 08:57:16;;;;;;;;;;;;;;;5.76;93.41;99340.38;4186213;28;20469;-63
2023/01/09 08:59:18;;;;;;;;;;;;;;;5.77;93.48;99347.41;4187589;28;20015;-63
2023/01/09 09:01:20;;;;;;;;;;;;;;;5.78;93.71;99351.75;4187725;28;20011;-63
2023/01/09 09:03:23;;;;;;;;;;;;;;;5.79;93.61;99356.09;4184905;28;20016;-63
2023/01/09 09:05:26;;;;;;;;;;;;;;;5.80;93.51;99351.56;4185160;28;20446;-63
2023/01/09 09:07:28;;;;;;;;;;;;;;;5.80;93.56;99352.41;4186725;28;20015;-63
2023/01/09 09:09:30;;;;;;;;;;;;;;;5.82;94.04;99353.06;4187839;28;20474;-63
2023/01/09 09:11:32;;;;;;;;;;;;;;;5.85;93.74;99352.69;4187621;28;20011;-64
2023/01/09 09:13:34;;;;;;;;;;;;;;;5.86;93.88;99342.81;4184596;28;20324;-64
2023/01/09 09:15:37;;;;;;;;;;;;;;;5.86;93.88;99346.34;4187654;28;19955;-63
2023/01/09 09:17:40;;;;;;;;;;;;;;;5.88;93.80;99356.88;4187383;28;20016;-64
2023/01/09 09:19:43;;;;;;;;;;;;;;;5.89;93.65;99350.47;4186225;28;20007;-64
2023/01/09 09:21:45;;;;;;;;;;;;;;;5.90;93.50;99352.16;4185421;28;20027;-64
2023/01/09 09:23:47;;;;;;;;;;;;;;;5.91;93.41;99351.97;4186743;28;20027;-64
2023/01/09 09:25:49;;;;;;;;;;;;;;;5.92;93.58;99367.06;4185253;28;20566;-64
2023/01/09 09:27:51;;;;;;;;;;;;;;;5.92;93.39;99356.34;4186361;28;20016;-63
2023/01/09 09:29:53;;;;;;;;;;;;;;;5.94;93.35;99366.84;4187507;28;20019;-63
2023/01/09 09:31:55;;;;;;;;;;;;;;;5.95;93.09;99355.13;4186487;28;20019;-62
2023/01/09 09:33:57;;;;;;;;;;;;;;;5.94;93.39;99353.44;4186798;28;20043;-64
2023/01/09 09:36:00;;;;;;;;;;;;;;;5.95;93.31;99357.81;4186309;28;20367;-64
2023/01/09 09:38:03;;;;;;;;;;;;;;;5.97;93.29;99360.34;4185588;28;20011;-63
2023/01/09 09:40:06;;;;;;;;;;;;;;;5.97;93.52;99366.50;4187095;28;20019;-63
2023/01/09 09:44:45;;;;;;;;;;;;;;;6.01;93.26;99364.34;4186127;28;20012;-63
2023/01/09 09:46:48;;;;;;;;;;;;;;;6.01;93.51;99373.19;4185294;28;20023;-63
2023/01/09 09:48:50;;;;;;;;;;;;;;;6.03;93.67;99376.50;4186320;28;20019;-62
2023/01/09 09:51:06;;;;;;;;;;;;;;;6.05;93.37;99374.50;4187085;28;20011;-62
2023/01/09 09:53:10;;;;;;;;;;;;;;;6.05;93.54;99379.88;4187032;28;20541;-63
2023/01/09 09:55:15;;;;;;;;;;;;;;;6.08;93.44;99378.66;4184869;28;20027;-62
2023/01/09 09:57:17;;;;;;;;;;;;;;;6.11;93.33;99384.50;4186358;28;19931;-63
2023/01/09 09:59:19;;;;;;;;;;;;;;;6.13;93.21;99385.16;4188487;28;20007;-63
2023/01/09 10:01:24;;;;;;;;;;;;;;;6.15;93.47;99382.28;4186544;28;20382;-64
2023/01/09 10:03:27;;;;;;;;;;;;;;;6.17;93.11;99379.44;4184634;28;20373;-61
2023/01/09 10:05:29;;;;;;;;;;;;;;;6.18;93.18;99379.25;4203250;28;20501;-64
2023/01/09 10:07:33;;;;;;;;;;;;;;;6.21;93.00;99383.41;4184841;28;20001;-62
2023/01/09 10:09:38;;;;;;;;;;;;;;;6.21;92.67;99370.84;4184573;28;20408;-64
2023/01/09 10:11:42;;;;;;;;;;;;;;;6.23;93.38;99378.69;4185020;28;20015;-63
2023/01/09 10:16:01;;;;;;;;;;;;;;;6.27;93.18;99372.78;4182532;28;20027;-63
2023/01/09 10:18:15;;;;;;;;;;;;;;;6.29;92.90;99370.75;4184657;28;19974;-63
2023/01/09 10:20:38;;;;;;;;;;;;;;;6.31;92.77;99379.44;4187763;28;20012;-64
2023/01/09 10:22:43;;;;;;;;;;;;;;;6.34;92.82;99388.97;4179454;28;20015;-62
2023/01/09 10:24:48;;;;;;;;;;;;;;;6.36;92.53;99394.97;4185874;28;20011;-64
2023/01/09 10:26:51;;;;;;;;;;;;;;;6.38;92.47;99395.66;4185433;28;20023;-64
2023/01/09 10:28:59;;;;;;;;;;;;;;;6.41;91.97;99397.13;4186479;28;20356;-63
2023/01/09 10:31:03;;;;;;;;;;;;;;;6.42;91.92;99402.28;4185884;28;20023;-63
2023/01/09 10:33:09;;;;;;;;;;;;;;;6.44;91.42;99394.06;4184834;28;20003;-63
2023/01/09 10:35:20;;;;;;;;;;;;;;;6.45;91.51;99399.25;4186745;28;20003;-64
2023/01/09 10:37:22;;;;;;;;;;;;;;;6.48;91.90;99388.16;4183138;28;20027;-63
2023/01/09 10:39:27;;;;;;;;;;;;;;;6.49;91.64;99397.88;4186873;28;20392;-62
2023/01/09 10:41:29;;;;;;;;;;;;;;;6.52;91.18;99394.00;4187385;28;20352;-64
2023/01/09 10:43:33;;;;;;;;;;;;;;;6.55;91.13;99395.47;4184710;28;20004;-63
2023/01/09 10:45:36;;;;;;;;;;;;;;;6.56;91.30;99397.16;4185856;28;20019;-63
2023/01/09 10:47:38;;;;;;;;;;;;;;;6.58;91.44;99414.72;4184815;28;20007;-63
2023/01/09 10:49:40;;;;;;;;;;;;;;;6.61;91.64;99405.47;4184824;28;20442;-64
2023/01/09 10:51:44;;;;;;;;;;;;;;;6.63;91.40;99409.63;4201863;28;20385;-63
2023/01/09 10:53:47;;;;;;;;;;;;;;;6.65;91.04;99410.28;4184093;28;20004;-63
2023/01/09 10:55:51;;;;;;;;;;;;;;;6.68;91.26;99409.09;4183924;28;20039;-64
2023/01/09 10:57:54;;;;;;;;;;;;;;;6.70;90.88;99425.81;4186104;28;20007;-63
2023/01/09 10:59:56;;;;;;;;;;;;;;;6.72;90.79;99422.97;4185828;28;20379;-61
2023/01/09 11:01:58;;;;;;;;;;;;;;;6.74;91.08;99419.09;4184809;28;20011;-63